Alm Zurich — V7NG2 — position and weather

sailwx.info

Track history (hours):
 
Tides and Currents Weather Stations Pressure Air Temp Water Temp Dewpoint Dewpoint Depression Visibility Wind Speed Wind Dir Waves Ship Positions

Alm Zurich

Last reported at 2016-Apr-07 04:22 UTC. Time now 2016-May-04 07:59 UTC.
Position N 01°15' E 104°04'.
Warning: this ship's position is 27 days out of date.

Length 294 m; draft 7.2 m.

Type: Ship (hazmat cat A). MMSI: 538002956.

Date/timePositionNaut miles runAvg speedWind from/ knotsBaromVisibWave heightAir tempDewpointWater temp
2016-Apr-07 04:22N 01°15' E 104°04'1112.9
2016-Apr-07 03:33N 01°12' E 103°54'1211.9
2016-Apr-07 02:34N 01°05' E 103°44'1111.0
2016-Apr-07 01:32N 01°07' E 103°33'12 0.3
2016-Apr-05 11:32N 01°16' E 103°26'7 7.2
2016-Apr-05 10:33N 01°17' E 103°33'4 1.9
2016-Apr-05 08:26N 01°21' E 103°33'0 0.0
2016-Apr-05 06:23N 01°21' E 103°33'0 0.0
2016-Apr-05 05:11N 01°21' E 103°33'0 0.0
2016-Apr-05 04:29N 01°21' E 103°33'0 0.0
2016-Apr-05 03:23N 01°21' E 103°33'0 0.0
2016-Apr-05 02:29N 01°21' E 103°33'0 0.0
2016-Apr-05 00:20N 01°21' E 103°33'0 0.0
2016-Apr-04 23:20N 01°21' E 103°33'0 0.0
2016-Apr-04 22:32N 01°21' E 103°33'0 0.0
2016-Apr-04 21:32N 01°21' E 103°33'0 0.0
2016-Apr-04 20:32N 01°21' E 103°33'0 0.0
2016-Apr-04 19:20N 01°21' E 103°33'0 0.0
2016-Apr-04 18:08N 01°21' E 103°33'0 0.0
2016-Apr-04 17:32N 01°21' E 103°33'0 0.0
2016-Apr-04 04:30N 01°21' E 103°33'6 6.0
2016-Apr-04 03:33N 01°15' E 103°32'3 2.1
2016-Apr-04 02:03N 01°15' E 103°29'0 0.0
2016-Apr-03 21:33N 01°15' E 103°29'0 0.0
2016-Apr-03 20:30N 01°15' E 103°29'18 1.1
2016-Apr-03 04:29N 01°09' E 103°45'1111.9
2016-Apr-03 03:33N 01°14' E 103°55'1414.1
2016-Apr-03 02:33N 01°16' E 104°10'  
2016-Mar-30 02:28N 22°18' E 114°29'227 7.1
2016-Mar-28 18:26N 23°53' E 118°13'1213.6
2016-Mar-28 17:33N 24°03' E 118°19'1413.9
2016-Mar-28 16:33N 24°16' E 118°14'1111.3
2016-Mar-28 15:33N 24°24' E 118°06'6 1.9
2016-Mar-28 12:14N 24°31' E 118°05'0 0.0
2016-Mar-28 10:26N 24°31' E 118°05'0 0.0
2016-Mar-28 07:23N 24°31' E 118°05'0 0.0
2016-Mar-28 06:23N 24°31' E 118°05'2 2.6
2016-Mar-28 05:29N 24°29' E 118°03'8 9.1
2016-Mar-28 04:34N 24°22' E 118°09'  
Track history (hours):
 
Tides and Currents Weather Stations Pressure Air Temp Water Temp Dewpoint Dewpoint Depression Visibility Wind Speed Wind Dir Waves Ship Positions

Alm Zurich

Last reported at 2016-Apr-07 04:22 UTC. Time now 2016-May-04 07:59 UTC.
Position N 01°15' E 104°04'.
Warning: this ship's position is 27 days out of date.

Length 294 m; draft 7.2 m.

Type: Ship (hazmat cat A). MMSI: 538002956.

Date/timePositionNaut miles runAvg speedWind from/ knotsBaromVisibWave heightAir tempDewpointWater temp
2016-Apr-07 04:22N 01°15' E 104°04'1112.9
2016-Apr-07 03:33N 01°12' E 103°54'1211.9
2016-Apr-07 02:34N 01°05' E 103°44'1111.0
2016-Apr-07 01:32N 01°07' E 103°33'12 0.3
2016-Apr-05 11:32N 01°16' E 103°26'7 7.2
2016-Apr-05 10:33N 01°17' E 103°33'4 1.9
2016-Apr-05 08:26N 01°21' E 103°33'0 0.0
2016-Apr-05 06:23N 01°21' E 103°33'0 0.0
2016-Apr-05 05:11N 01°21' E 103°33'0 0.0
2016-Apr-05 04:29N 01°21' E 103°33'0 0.0
2016-Apr-05 03:23N 01°21' E 103°33'0 0.0
2016-Apr-05 02:29N 01°21' E 103°33'0 0.0
2016-Apr-05 00:20N 01°21' E 103°33'0 0.0
2016-Apr-04 23:20N 01°21' E 103°33'0 0.0
2016-Apr-04 22:32N 01°21' E 103°33'0 0.0
2016-Apr-04 21:32N 01°21' E 103°33'0 0.0
2016-Apr-04 20:32N 01°21' E 103°33'0 0.0
2016-Apr-04 19:20N 01°21' E 103°33'0 0.0
2016-Apr-04 18:08N 01°21' E 103°33'0 0.0
2016-Apr-04 17:32N 01°21' E 103°33'0 0.0
2016-Apr-04 04:30N 01°21' E 103°33'6 6.0
2016-Apr-04 03:33N 01°15' E 103°32'3 2.1
2016-Apr-04 02:03N 01°15' E 103°29'0 0.0
2016-Apr-03 21:33N 01°15' E 103°29'0 0.0
2016-Apr-03 20:30N 01°15' E 103°29'18 1.1
2016-Apr-03 04:29N 01°09' E 103°45'1111.9
2016-Apr-03 03:33N 01°14' E 103°55'1414.1
2016-Apr-03 02:33N 01°16' E 104°10'  
2016-Mar-30 02:28N 22°18' E 114°29'227 7.1
2016-Mar-28 18:26N 23°53' E 118°13'1213.6
2016-Mar-28 17:33N 24°03' E 118°19'1413.9
2016-Mar-28 16:33N 24°16' E 118°14'1111.3
2016-Mar-28 15:33N 24°24' E 118°06'6 1.9
2016-Mar-28 12:14N 24°31' E 118°05'0 0.0
2016-Mar-28 10:26N 24°31' E 118°05'0 0.0
2016-Mar-28 07:23N 24°31' E 118°05'0 0.0
2016-Mar-28 06:23N 24°31' E 118°05'2 2.6
2016-Mar-28 05:29N 24°29' E 118°03'8 9.1
2016-Mar-28 04:34N 24°22' E 118°09'  

Dump ship's entire track history